This is the latest recevied weather packets stored in our database for station/object HP1MRA-15. If no packets are shown the sender has not sent any weather packets the latest 10 day(s).
| Time | Temp. | Humidity | Pressure | Rain* | Wind** | Luminosity | Snow |
|---|---|---|---|---|---|---|---|
| 1778254019 | 34.44° C | 56% | 1001.8 hPa | 0 mm | - | - | - |
| 1778253718 | 35° C | 57% | 1001.8 hPa | 0 mm | - | - | - |
| 1778253418 | 33.89° C | 60% | 1001.9 hPa | 0 mm | - | - | - |
| 1778253119 | 33.89° C | 61% | 1002 hPa | 0 mm | - | - | - |
| 1778252818 | 33.89° C | 60% | 1002 hPa | 0 mm | - | - | - |
| 1778252518 | 34.44° C | 59% | 1002.1 hPa | 0 mm | - | - | - |
| 1778252218 | 34.44° C | 59% | 1002.1 hPa | 0 mm | - | - | - |
| 1778251918 | 35° C | 59% | 1002.2 hPa | 0 mm | - | - | - |
| 1778251318 | 34.44° C | 62% | 1002.2 hPa | 0 mm | - | - | - |
| 1778251018 | 33.89° C | 63% | 1002.3 hPa | 0 mm | - | - | - |
| 1778250718 | 33.33° C | 62% | 1002.5 hPa | 0 mm | - | - | - |
| 1778250141 | 33.33° C | 62% | 1002.4 hPa | 0 mm | - | - | - |
| 1778249840 | - | - | 1002.4 hPa | 0 mm | - | - | - |
| 1778249540 | 33.33° C | 63% | 1002.5 hPa | 0 mm | - | - | - |
| 1778249240 | 32.78° C | 64% | 1002.5 hPa | 0 mm | - | - | - |
| 1778248940 | 33.33° C | 63% | 1002.6 hPa | 0 mm | - | - | - |
| 1778248641 | 33.33° C | 63% | 1002.8 hPa | 0 mm | - | - | - |
| 1778248040 | 32.78° C | 67% | 1002.9 hPa | 0 mm | - | - | - |
| 1778247740 | 32.22° C | 69% | 1002.8 hPa | 0 mm | - | - | - |
| 1778247440 | 31.67° C | 69% | 1002.8 hPa | 0 mm | - | - | - |
| 1778247139 | 31.67° C | 69% | 1002.7 hPa | 0 mm | - | - | - |
| 1778246839 | 31.67° C | 69% | 1002.7 hPa | 0 mm | - | - | - |
| 1778246539 | 31.67° C | 70% | 1002.7 hPa | 0 mm | - | - | - |
| 1778246246 | 31.67° C | 70% | 1002.6 hPa | 0 mm | - | - | - |
| 1778245938 | 31.11° C | 71% | 1002.6 hPa | 0 mm | - | - | - |
* Rain latest hour (hover to see other rain measurements)
** Current wind speed in m/s (hover to see current wind gust speed)